No particular awareness of the weather is required.    There are no Weather-warnings


Meteo18 Weather Cam more information Meteo18 Weather Cam


Thunder radar more information blitzortung!


Rain radar more information rain snow radar


Visit our other weather sites:

Template documentation
and downloads

And another site



Weather Underground History page Text

Daily Summary for June 4, 2017 Units:  English    Metric   Both
« Previous Day
Next Day »
Daily Weekly Monthly Yearly Custom
  High: Low: Average:
Temperature: 68.7 °F 49.5 °F 60.4 °F
Dew Point: 56.1 °F 47.7 °F 51.3 °F
Humidity: 96 % 49 % 74 %
Wind Speed: 7 mph 0 mph 1.3 mph
Wind Gust: 9 mph - -
Wind:- - WSW
Pressure: 30.2 in 30.1 in -
Precipitation: 0.05 in    
Historical Graphs
 
 
Tabular Data for June 4, 2017
Time Temperature Dew Point Pressure Wind Wind Speed Wind Gust Humidity Rainfall Rate (Hourly)
00:02 57.6 °F 56.1 °F 30.1 in NW 4 mph 9 mph 95 % 0.04 in
00:07 57.2 °F 55.8 °F 30.1 in NW 4 mph 9 mph 95 % 0.06 in
00:12 57 °F 55.6 °F 30.1 in NNW 3 mph 8 mph 95 % 0.07 in
00:17 57 °F 55.6 °F 30.1 in NNW 3 mph 8 mph 95 % 0.08 in
00:22 57 °F 55.6 °F 30.1 in Calm   7 mph 95 % 0.08 in
00:32 56.7 °F 55.2 °F 30.1 in NNW 4 mph 6 mph 95 % 0.07 in
00:42 56.7 °F 55.2 °F 30.1 in NNW 1 mph 6 mph 95 % 0.08 in
00:47 56.5 °F 55 °F 30.1 in NNW 3 mph 6 mph 95 % 0.08 in
00:52 56.5 °F 55 °F 30.1 in NNE 3 mph 6 mph 95 % 0.07 in
00:57 56.3 °F 54.7 °F 30.1 in North 4 mph 6 mph 94 % 0.06 in
01:02 56.1 °F 54.5 °F 30.1 in NNW 5 mph 7 mph 94 % 0.04 in
01:07 56.1 °F 54.5 °F 30.1 in NNW 3 mph 7 mph 94 % 0.03 in
01:12 55.9 °F 54.3 °F 30.1 in NNW 2 mph 7 mph 94 % 0.02 in
01:17 55.9 °F 54.3 °F 30.1 in North 3 mph 7 mph 94 % 0.01 in
01:22 55.9 °F 54.3 °F 30.1 in NNW 2 mph 6 mph 94 % 0.01 in
01:27 55.8 °F 54.1 °F 30.1 in NW 1 mph 6 mph 94 % 0.01 in
01:32 55.8 °F 54.1 °F 30.1 in NW 2 mph 6 mph 94 % 0 in
01:37 55.8 °F 54.1 °F 30.1 in NW 3 mph 6 mph 94 % 0 in
01:42 55.8 °F 54.1 °F 30.1 in WNW 1 mph 6 mph 94 % 0 in
01:47 55.8 °F 54.1 °F 30.1 in WNW 5 mph 6 mph 94 % 0 in
01:52 55.8 °F 54.1 °F 30.1 in NW 3 mph 8 mph 94 % 0 in
01:57 55.8 °F 54.1 °F 30.1 in NNW 2 mph 8 mph 94 % 0 in
02:02 55.8 °F 54.1 °F 30.1 in North 1 mph 8 mph 94 % 0 in
02:07 55.8 °F 54.1 °F 30.1 in Calm   5 mph 94 % 0 in
02:12 55.8 °F 54.1 °F 30.1 in NW 2 mph 5 mph 94 % 0 in
02:22 55.8 °F 54.1 °F 30.1 in NW 1 mph 5 mph 94 % 0 in
02:27 55.8 °F 54.1 °F 30.1 in Calm   5 mph 94 % 0 in
02:32 55.8 °F 54.1 °F 30.1 in Calm   5 mph 94 % 0 in
02:37 55.6 °F 54 °F 30.1 in NNW 2 mph 6 mph 94 % 0 in
02:42 55.6 °F 54 °F 30.1 in WNW 3 mph 6 mph 94 % 0 in
02:47 55.6 °F 54 °F 30.1 in Calm   6 mph 94 % 0 in
02:52 55.6 °F 54 °F 30.1 in WNW 2 mph 4 mph 94 % 0 in
02:57 55.6 °F 54 °F 30.1 in WNW 1 mph 5 mph 94 % 0 in
03:02 55.4 °F 53.8 °F 30.1 in West 3 mph 5 mph 94 % 0 in
03:07 55.2 °F 53.6 °F 30.1 in West 1 mph 6 mph 94 % 0 in
03:12 55.2 °F 53.6 °F 30.1 in WNW 1 mph 6 mph 94 % 0 in
03:17 55.2 °F 53.6 °F 30.1 in Calm   6 mph 94 % 0 in
03:22 55.2 °F 53.8 °F 30.1 in WNW 1 mph 2 mph 95 % 0 in
03:27 55.2 °F 53.8 °F 30.1 in WNW 1 mph 3 mph 95 % 0 in
03:32 55 °F 53.6 °F 30.1 in Calm   3 mph 95 % 0 in
03:42 54.9 °F 53.4 °F 30.1 in NW 1 mph 4 mph 95 % 0 in
03:47 54.5 °F 52.9 °F 30.1 in WNW 3 mph 4 mph 94 % 0 in
03:52 54.3 °F 52.7 °F 30.1 in WNW 1 mph 4 mph 94 % 0 in
03:57 54.1 °F 52.5 °F 30.1 in NW 2 mph 4 mph 94 % 0 in
04:02 54 °F 52.3 °F 30.1 in WNW 2 mph 4 mph 94 % 0 in
04:07 54 °F 52.3 °F 30.1 in West 1 mph 4 mph 94 % 0 in
04:12 53.8 °F 52.2 °F 30.1 in WNW 1 mph 4 mph 94 % 0 in
04:17 53.8 °F 52.2 °F 30.1 in NW 2 mph 4 mph 94 % 0 in
04:22 53.6 °F 52 °F 30.1 in West 1 mph 3 mph 94 % 0 in
04:32 53.2 °F 51.6 °F 30.1 in NW 1 mph 3 mph 94 % 0 in
04:37 52.9 °F 51.3 °F 30.1 in Calm   3 mph 94 % 0 in
04:42 52.7 °F 51.1 °F 30.1 in NNW 1 mph 3 mph 94 % 0 in
04:47 52.5 °F 50.9 °F 30.1 in NNW 1 mph 3 mph 94 % 0 in
04:52 52.3 °F 50.7 °F 30.1 in NNW 2 mph 2 mph 94 % 0 in
04:57 52.2 °F 50.5 °F 30.1 in North 1 mph 3 mph 94 % 0 in
05:02 52 °F 50.4 °F 30.1 in NNW 1 mph 3 mph 94 % 0 in
05:12 52 °F 50.4 °F 30.1 in Calm   2 mph 94 % 0 in
05:17 52 °F 50.4 °F 30.1 in Calm   2 mph 94 % 0 in
05:22 52 °F 50.4 °F 30.1 in Calm     94 % 0 in
05:32 51.3 °F 49.6 °F 30.1 in Calm     94 % 0 in
05:42 50.5 °F 48.9 °F 30.1 in Calm     94 % 0 in
05:52 50.5 °F 49.1 °F 30.1 in Calm     95 % 0 in
06:02 49.8 °F 48.4 °F 30.1 in Calm     95 % 0 in
06:17 49.5 °F 48 °F 30.1 in Calm     95 % 0 in
06:22 49.5 °F 48.4 °F 30.1 in Calm     96 % 0 in
06:27 49.5 °F 48.4 °F 30.1 in Calm     96 % 0 in
06:32 49.5 °F 48.4 °F 30.1 in Calm     96 % 0 in
06:42 49.6 °F 48.6 °F 30.2 in Calm     96 % 0 in
06:47 49.6 °F 48.6 °F 30.2 in Calm     96 % 0 in
06:57 50 °F 48.6 °F 30.2 in Calm     95 % 0 in
07:02 50.2 °F 48.7 °F 30.2 in Calm     95 % 0 in
07:12 50.7 °F 49.3 °F 30.2 in Calm     95 % 0 in
07:17 51.4 °F 50 °F 30.2 in Calm     95 % 0 in
07:22 52.9 °F 51.8 °F 30.2 in Calm     96 % 0 in
07:32 53.8 °F 51.8 °F 30.2 in Calm     93 % 0 in
07:42 54.9 °F 52.5 °F 30.2 in Calm     92 % 0 in
07:52 56.1 °F 53.2 °F 30.2 in Calm     90 % 0 in
07:57 55.6 °F 52.3 °F 30.2 in Calm     89 % 0 in
08:02 55.4 °F 52.2 °F 30.2 in Calm   1 mph 89 % 0 in
08:12 55.9 °F 52.7 °F 30.2 in Calm   2 mph 89 % 0 in
08:17 55.9 °F 52.7 °F 30.2 in Calm   2 mph 89 % 0 in
08:22 56.1 °F 52.7 °F 30.2 in Calm   2 mph 88 % 0 in
08:27 56.3 °F 53.1 °F 30.2 in Calm   2 mph 89 % 0 in
08:32 56.5 °F 53.2 °F 30.2 in Calm   1 mph 89 % 0 in
08:37 56.5 °F 53.2 °F 30.2 in Calm     89 % 0 in
08:42 56.5 °F 52.9 °F 30.2 in Calm     88 % 0 in
08:47 56.7 °F 53.1 °F 30.2 in Calm     88 % 0 in
08:52 56.8 °F 53.2 °F 30.2 in Calm     88 % 0 in
08:57 57 °F 52.9 °F 30.2 in East 1 mph   86 % 0 in
09:02 56.8 °F 52.7 °F 30.2 in ENE 2 mph 2 mph 86 % 0 in
09:12 57 °F 52 °F 30.2 in ENE 2 mph 2 mph 83 % 0 in
09:17 57.6 °F 53.1 °F 30.2 in Calm   3 mph 85 % 0 in
09:22 57.7 °F 52 °F 30.2 in North 2 mph 3 mph 81 % 0 in
09:32 58.3 °F 52.5 °F 30.2 in Calm   4 mph 81 % 0 in
09:37 59.9 °F 53.8 °F 30.2 in Calm   4 mph 80 % 0 in
09:42 60.6 °F 53.4 °F 30.2 in Calm   4 mph 77 % 0 in
09:47 60.4 °F 52.5 °F 30.2 in Calm   4 mph 75 % 0 in
09:52 60.1 °F 51.8 °F 30.2 in Calm   4 mph 74 % 0 in
09:57 60.1 °F 51.1 °F 30.2 in North 2 mph 4 mph 72 % 0 in
10:02 60.1 °F 51.8 °F 30.2 in NNE 2 mph 6 mph 74 % 0 in
10:07 60.6 °F 50.7 °F 30.2 in NNE 5 mph 6 mph 70 % 0 in
10:12 60.4 °F 49.5 °F 30.2 in WNW 2 mph 7 mph 67 % 0 in
10:17 60.4 °F 50.5 °F 30.2 in North 1 mph 7 mph 70 % 0 in
10:27 60.8 °F 48.9 °F 30.2 in NNE 2 mph 8 mph 65 % 0 in
10:32 60.6 °F 49.3 °F 30.2 in NE 3 mph 8 mph 66 % 0 in
10:37 60.8 °F 50.2 °F 30.2 in Calm   7 mph 68 % 0 in
10:42 61.2 °F 50.2 °F 30.2 in West 1 mph 7 mph 67 % 0 in
10:47 61.3 °F 50.4 °F 30.2 in West 6 mph 6 mph 67 % 0 in
10:52 61.5 °F 50.5 °F 30.2 in NE 4 mph 6 mph 67 % 0 in
10:57 61.3 °F 48.6 °F 30.2 in NNW 3 mph 6 mph 63 % 0 in
11:02 61.3 °F 49.1 °F 30.2 in West 3 mph 7 mph 64 % 0 in
11:07 61.7 °F 48.9 °F 30.2 in NNE 2 mph 7 mph 63 % 0 in
11:12 61.7 °F 48.9 °F 30.2 in NNW 2 mph 7 mph 63 % 0 in
11:17 61.9 °F 50.4 °F 30.2 in North 4 mph 7 mph 66 % 0 in
11:22 62.1 °F 50.5 °F 30.2 in NNW 3 mph 9 mph 66 % 0 in
11:32 62.2 °F 50 °F 30.2 in West 1 mph 7 mph 64 % 0 in
11:37 63 °F 50.5 °F 30.2 in NE 2 mph 5 mph 64 % 0 in
11:42 63.1 °F 50.7 °F 30.2 in WNW 4 mph 6 mph 64 % 0 in
11:47 63.3 °F 49.3 °F 30.2 in SW 2 mph 6 mph 60 % 0 in
11:52 63.5 °F 50.7 °F 30.2 in WNW 2 mph 6 mph 63 % 0 in
11:57 64.6 °F 52.2 °F 30.2 in NNE 4 mph 5 mph 64 % 0 in
12:02 63.9 °F 50.5 °F 30.2 in NNW 2 mph 7 mph 62 % 0 in
12:07 63.1 °F 49.8 °F 30.2 in North 1 mph 7 mph 62 % 0 in
12:12 63 °F 49.8 °F 30.2 in Calm   7 mph 62 % 0 in
12:17 62.8 °F 50 °F 30.2 in NNW 2 mph 7 mph 63 % 0 in
12:22 62.8 °F 50 °F 30.2 in WNW 2 mph 7 mph 63 % 0 in
12:32 63.9 °F 51.4 °F 30.2 in NNW 7 mph 7 mph 64 % 0 in
12:37 63.7 °F 50 °F 30.2 in West 1 mph 7 mph 61 % 0 in
12:42 63.1 °F 49.8 °F 30.2 in NW 3 mph 7 mph 62 % 0 in
12:47 64 °F 52.5 °F 30.2 in NNE 6 mph 7 mph 66 % 0 in
12:52 63.9 °F 50.5 °F 30.2 in West 2 mph 7 mph 62 % 0 in
12:57 63.9 °F 50.5 °F 30.2 in West 2 mph 6 mph 62 % 0 in
13:02 63.9 °F 50.2 °F 30.2 in North 2 mph 6 mph 61 % 0 in
13:07 63.7 °F 50 °F 30.2 in NW 4 mph 7 mph 61 % 0 in
13:12 63.5 °F 49.8 °F 30.2 in West 3 mph 8 mph 61 % 0 in
13:17 63.9 °F 51.4 °F 30.2 in West 4 mph 8 mph 64 % 0 in
13:22 64.2 °F 50.5 °F 30.2 in WNW 1 mph 8 mph 61 % 0 in
13:27 64.2 °F 50.5 °F 30.2 in WNW 1 mph 8 mph 61 % 0 in
13:32 64.8 °F 50.5 °F 30.2 in NNW 1 mph 6 mph 60 % 0 in
13:37 64.9 °F 50.7 °F 30.2 in Calm   6 mph 60 % 0 in
13:42 65.1 °F 50.4 °F 30.2 in North 2 mph 6 mph 59 % 0 in
13:47 65.1 °F 51.3 °F 30.2 in NNW 2 mph 6 mph 61 % 0 in
13:52 65.1 °F 51.8 °F 30.1 in WNW 3 mph 5 mph 62 % 0 in
13:57 65.5 °F 50.4 °F 30.1 in NW 2 mph 5 mph 58 % 0 in
14:02 65.5 °F 51.6 °F 30.1 in NW 4 mph 5 mph 61 % 0 in
14:07 65.1 °F 49.5 °F 30.1 in NNE 1 mph 6 mph 57 % 0 in
14:12 65.1 °F 50 °F 30.1 in Calm   6 mph 58 % 0 in
14:17 65.1 °F 48.6 °F 30.1 in NW 5 mph 7 mph 55 % 0 in
14:22 65.1 °F 49.1 °F 30.1 in Calm   7 mph 56 % 0 in
14:27 65.8 °F 51.1 °F 30.1 in NW 2 mph 7 mph 59 % 0 in
14:37 65.7 °F 50 °F 30.1 in ENE 2 mph 5 mph 57 % 0 in
14:42 65.5 °F 50.7 °F 30.1 in West 1 mph 4 mph 59 % 0 in
14:47 65.1 °F 50.4 °F 30.1 in WNW 2 mph 5 mph 59 % 0 in
14:52 65.3 °F 50.2 °F 30.1 in SW 1 mph 5 mph 58 % 0 in
14:57 66 °F 49.8 °F 30.1 in Calm   5 mph 56 % 0 in
15:02 66.6 °F 49.5 °F 30.1 in WNW 5 mph 5 mph 54 % 0 in
15:07 66 °F 49.5 °F 30.1 in West 4 mph 6 mph 55 % 0 in
15:12 66 °F 49.5 °F 30.1 in West 3 mph 6 mph 55 % 0 in
15:17 66 °F 49.8 °F 30.1 in SW 3 mph 7 mph 56 % 0 in
15:22 66.2 °F 49.6 °F 30.1 in WNW 1 mph 7 mph 55 % 0 in
15:27 66.2 °F 49.6 °F 30.1 in NNW 1 mph 7 mph 55 % 0 in
15:32 66.2 °F 49.1 °F 30.1 in West 2 mph 5 mph 54 % 0 in
15:37 66.2 °F 50 °F 30.1 in West 3 mph 5 mph 56 % 0 in
15:42 65.8 °F 50.2 °F 30.1 in West 2 mph 5 mph 57 % 0 in
15:47 65.7 °F 49.5 °F 30.1 in West 3 mph 5 mph 56 % 0 in
15:52 65.5 °F 49.3 °F 30.1 in West 2 mph 4 mph 56 % 0 in
15:57 65.8 °F 48.7 °F 30.1 in WSW 3 mph 4 mph 54 % 0 in
16:02 66 °F 48.9 °F 30.1 in Calm   4 mph 54 % 0 in
16:07 67.1 °F 49.5 °F 30.1 in West 2 mph 4 mph 53 % 0 in
16:12 67.1 °F 48.9 °F 30.1 in Calm   6 mph 52 % 0 in
16:17 66.9 °F 48.7 °F 30.1 in Calm   6 mph 52 % 0 in
16:22 67.5 °F 49.3 °F 30.1 in WNW 4 mph 6 mph 52 % 0 in
16:27 67.5 °F 49.3 °F 30.1 in Calm   5 mph 52 % 0 in
16:32 67.6 °F 48.4 °F 30.1 in West 4 mph 4 mph 50 % 0 in
16:37 66.9 °F 47.7 °F 30.1 in WSW 2 mph 7 mph 50 % 0 in
16:42 67.1 °F 47.8 °F 30.1 in Calm   7 mph 50 % 0 in
16:47 67.3 °F 48 °F 30.1 in NE 1 mph 6 mph 50 % 0 in
16:52 66.7 °F 50 °F 30.1 in Calm   5 mph 55 % 0 in
16:57 67.1 °F 51.8 °F 30.1 in Calm   5 mph 58 % 0 in
17:02 67.3 °F 50.5 °F 30.1 in Calm   4 mph 55 % 0 in
17:07 67.6 °F 49.5 °F 30.1 in Calm   3 mph 52 % 0 in
17:12 67.8 °F 49.6 °F 30.1 in WNW 1 mph 4 mph 52 % 0 in
17:17 67.6 °F 49.5 °F 30.1 in NNW 1 mph 4 mph 52 % 0 in
17:22 66.9 °F 49.3 °F 30.1 in Calm   4 mph 53 % 0 in
17:27 67.5 °F 49.8 °F 30.1 in WNW 1 mph 3 mph 53 % 0 in
17:32 67.6 °F 50.4 °F 30.1 in Calm   3 mph 54 % 0 in
17:37 68.2 °F 51.8 °F 30.1 in East 2 mph 3 mph 56 % 0 in
17:42 67.6 °F 50.9 °F 30.1 in NNE 4 mph 4 mph 55 % 0 in
17:47 67.5 °F 50.7 °F 30.1 in NNE 3 mph 4 mph 55 % 0 in
17:52 66.7 °F 50 °F 30.1 in ENE 1 mph 5 mph 55 % 0 in
17:57 66.6 °F 49.8 °F 30.1 in Calm   5 mph 55 % 0 in
18:02 66.7 °F 51.1 °F 30.1 in East 1 mph 5 mph 57 % 0 in
18:07 67.5 °F 51.3 °F 30.1 in NE 2 mph 3 mph 56 % 0 in
18:12 66.9 °F 49.8 °F 30.1 in ENE 5 mph 6 mph 54 % 0 in
18:17 67.3 °F 51.1 °F 30.1 in NE 2 mph 6 mph 56 % 0 in
18:22 66.9 °F 49.8 °F 30.1 in NNE 2 mph 6 mph 54 % 0 in
18:32 67.5 °F 49.8 °F 30.1 in WNW 3 mph 5 mph 53 % 0 in
18:42 67.6 °F 50.4 °F 30.1 in WNW 4 mph 7 mph 54 % 0 in
18:47 67.3 °F 49.6 °F 30.1 in WNW 3 mph 8 mph 53 % 0 in
18:52 67.5 °F 49.8 °F 30.1 in WNW 4 mph 8 mph 53 % 0 in
18:57 67.8 °F 49.6 °F 30.1 in Calm   7 mph 52 % 0 in
19:02 67.8 °F 49.1 °F 30.1 in WSW 3 mph 7 mph 51 % 0 in
19:12 68.5 °F 50.2 °F 30.1 in NW 1 mph 6 mph 52 % 0 in
19:17 68.7 °F 49.3 °F 30.1 in North 1 mph 6 mph 50 % 0 in
19:22 68.4 °F 48.9 °F 30.1 in NNW 1 mph 6 mph 50 % 0 in
19:27 68.5 °F 50.2 °F 30.1 in North 1 mph 5 mph 52 % 0 in
19:32 68.4 °F 48.4 °F 30.1 in Calm   5 mph 49 % 0 in
19:37 68.2 °F 48.9 °F 30.1 in WNW 1 mph 3 mph 50 % 0 in
19:42 68 °F 50.7 °F 30.1 in Calm   3 mph 54 % 0 in
19:47 67.6 °F 49.8 °F 30.1 in North 1 mph 4 mph 53 % 0 in
19:52 67.5 °F 50.7 °F 30.1 in WNW 2 mph 4 mph 55 % 0 in
19:57 67.3 °F 51.1 °F 30.1 in Calm   4 mph 56 % 0 in
20:02 67.1 °F 50.9 °F 30.1 in Calm   3 mph 56 % 0 in
20:07 66.9 °F 49.8 °F 30.1 in Calm   3 mph 54 % 0 in
20:12 66.9 °F 50.7 °F 30.1 in Calm   3 mph 56 % 0 in
20:17 66.6 °F 50.9 °F 30.1 in NW 1 mph 2 mph 57 % 0 in
20:22 66.2 °F 51.4 °F 30.1 in WNW 1 mph 2 mph 59 % 0 in
20:27 66.2 °F 51.4 °F 30.1 in Calm   2 mph 59 % 0 in
20:32 66.2 °F 52.3 °F 30.1 in NE 1 mph 2 mph 61 % 0 in
20:42 65.1 °F 50.9 °F 30.1 in Calm   1 mph 60 % 0 in
20:47 65.3 °F 51.4 °F 30.1 in Calm   1 mph 61 % 0 in
20:52 65.5 °F 51.6 °F 30.1 in Calm     61 % 0 in
21:02 65.7 °F 51.8 °F 30.1 in Calm     61 % 0 in
21:07 66.4 °F 54.3 °F 30.1 in Calm     65 % 0 in
21:12 66 °F 52.2 °F 30.1 in Calm     61 % 0 in
21:17 64.9 °F 51.6 °F 30.1 in Calm     62 % 0 in
21:22 64 °F 51.3 °F 30.1 in Calm     63 % 0 in
21:27 63.5 °F 52.3 °F 30.1 in Calm     67 % 0 in
21:37 61.5 °F 52 °F 30.1 in Calm     71 % 0 in
21:42 61.2 °F 52 °F 30.1 in Calm     72 % 0 in
21:47 60.6 °F 51.6 °F 30.1 in Calm     72 % 0 in
21:52 60.3 °F 51.6 °F 30.1 in Calm     73 % 0 in
21:57 59.9 °F 51.6 °F 30.1 in Calm     74 % 0 in
22:02 59.5 °F 51.6 °F 30.1 in Calm     75 % 0 in
22:12 58.8 °F 51.3 °F 30.1 in Calm     76 % 0 in
22:17 58.6 °F 51.4 °F 30.1 in Calm     77 % 0 in
22:22 58.5 °F 51.6 °F 30.1 in Calm     78 % 0 in
22:27 58.3 °F 51.8 °F 30.1 in Calm     79 % 0 in
22:32 58.1 °F 51.6 °F 30.1 in Calm     79 % 0 in
22:37 57.9 °F 51.4 °F 30.1 in Calm     79 % 0 in
22:42 57.6 °F 51.8 °F 30.1 in Calm     81 % 0 in
22:47 57.2 °F 51.8 °F 30.1 in Calm     82 % 0 in
22:52 56.7 °F 51.6 °F 30.1 in Calm     83 % 0 in
22:57 56.5 °F 51.6 °F 30.1 in Calm     84 % 0 in
23:02 56.5 °F 51.6 °F 30.1 in Calm     84 % 0 in
23:07 56.3 °F 51.3 °F 30.1 in Calm     83 % 0 in
23:12 56.1 °F 51.1 °F 30.1 in Calm     83 % 0 in
23:17 55.9 °F 51.3 °F 30.1 in Calm     84 % 0 in
23:22 55.6 °F 51.1 °F 30.1 in Calm     85 % 0 in
23:27 55 °F 50.9 °F 30.1 in Calm     86 % 0 in
23:32 54.9 °F 50.7 °F 30.1 in Calm     86 % 0 in
23:37 54.7 °F 50.9 °F 30.1 in Calm     87 % 0 in
23:42 54.5 °F 50.7 °F 30.1 in Calm     87 % 0 in
23:47 54.1 °F 50.4 °F 30.1 in Calm     87 % 0 in
23:57 53.8 °F 50.4 °F 30.1 in Calm     88 % 0 in
Meteo18
Compliments of Weather Underground - 4 mb

Script developed by  Jim McMurry - jmcmurry@mwt.net Adapted for the template by  Wim van der Kuil - Leuven-Template.eu

You find our weather info also at:

European Weather Network

Weather Underground

Equipment we use:

Weather-station
Davis Vue

Weather-program
Meteohub

Weather-server
Raspberry PI 2 B+

Provider
1 and 1

Davis Vue

Meteohub

Raspberry PI 2 B+

1 and 1